Time;durP1;ratioP1;P1;durP2;ratioP2;P2;SDS_P1;SDS_P2;PMS_P1;PMS_P2;Temp;Humidity;BMP_temperature;BMP_pressure;BME280_temperature;BME280_humidity;BME280_pressure;Samples;Min_cycle;Max_cycle;Signal;HPM_P1;HPM_P2
2023/04/06 16:56:03;;;;;;;2.45;1.40;;;17.10;55.20;;;;;;4931764;23;45331;-82
2023/04/06 17:12:30;;;;;;;3.38;1.90;;;17.20;55.10;;;;;;4911878;29;45262;-82
2023/04/06 17:14:57;;;;;;;2.97;1.88;;;17.10;55.90;;;;;;4908614;28;45302;-81
2023/04/06 17:17:24;;;;;;;3.85;2.22;;;17.20;55.00;;;;;;4908994;29;45488;-81
2023/04/06 17:19:51;;;;;;;3.80;1.98;;;17.20;55.20;;;;;;4908749;29;47771;-80
2023/04/06 17:22:19;;;;;;;3.80;2.00;;;17.10;55.30;;;;;;4908702;29;46144;-81
2023/04/06 17:24:47;;;;;;;2.60;1.75;;;17.10;55.10;;;;;;4908683;29;45376;-81
2023/04/06 17:27:14;;;;;;;4.28;2.47;;;17.10;55.30;;;;;;4908796;29;45233;-81
2023/04/06 17:29:42;;;;;;;6.53;2.15;;;17.10;55.30;;;;;;4908520;29;46308;-81
2023/04/06 17:32:10;;;;;;;3.17;1.67;;;17.10;55.10;;;;;;4908647;29;45212;-81
2023/04/06 17:34:37;;;;;;;4.50;1.98;;;17.10;55.40;;;;;;4912000;29;45137;-81
2023/04/06 17:37:04;;;;;;;2.78;1.63;;;17.10;55.20;;;;;;4912217;29;45399;-81
2023/04/06 17:39:31;;;;;;;4.07;1.77;;;17.10;55.30;;;;;;4912070;29;47261;-81
2023/04/06 17:41:58;;;;;;;3.30;1.70;;;17.10;55.40;;;;;;4911490;29;45388;-82
2023/04/06 17:44:25;;;;;;;4.40;1.80;;;17.10;55.50;;;;;;4912087;29;45398;-82
2023/04/06 17:46:53;;;;;;;4.20;1.90;;;17.10;55.40;;;;;;4911949;29;45437;-82
2023/04/06 17:49:20;;;;;;;3.47;1.80;;;17.10;55.60;;;;;;4911387;29;47752;-82
2023/04/06 17:51:47;;;;;;;4.57;1.70;;;17.10;55.50;;;;;;4911610;29;45278;-83
2023/04/06 17:54:14;;;;;;;1.48;1.27;;;17.10;55.70;;;;;;4910999;29;45279;-83
2023/04/06 17:56:41;;;;;;;4.10;1.92;;;17.10;55.70;;;;;;4911453;29;45234;-83
2023/04/06 17:59:10;;;;;;;3.45;1.98;;;17.20;55.70;;;;;;4911739;29;45666;-82
2023/04/06 18:01:37;;;;;;;3.30;1.52;;;17.10;55.80;;;;;;4911560;29;45411;-82
2023/04/06 18:04:05;;;;;;;5.88;1.98;;;17.10;55.90;;;;;;4911625;29;45297;-81
2023/04/06 18:06:32;;;;;;;2.72;1.40;;;17.10;56.00;;;;;;4914563;29;45586;-82
2023/04/06 18:08:59;;;;;;;3.70;1.52;;;17.10;56.20;;;;;;4911455;29;47317;-83
2023/04/06 18:11:29;;;;;;;3.00;1.30;;;17.10;56.20;;;;;;4911513;29;45319;-81
2023/04/06 18:13:56;;;;;;;2.85;1.42;;;17.10;56.10;;;;;;4911194;29;45163;-82
2023/04/06 18:16:23;;;;;;;2.75;1.65;;;17.10;56.20;;;;;;4911582;29;45475;-82
2023/04/06 18:18:50;;;;;;;3.40;1.30;;;17.10;56.30;;;;;;4910819;29;45443;-82
2023/04/06 18:21:18;;;;;;;3.67;1.38;;;17.10;56.40;;;;;;4911266;29;45280;-82
2023/04/06 18:23:46;;;;;;;2.28;1.50;;;17.10;56.50;;;;;;4911330;29;45249;-82
2023/04/06 18:26:18;;;;;;;2.75;1.50;;;17.10;56.40;;;;;;4911777;29;45060;-82
2023/04/06 18:28:45;;;;;;;2.38;1.30;;;17.10;57.70;;;;;;4910988;29;45226;-81
2023/04/06 18:31:12;;;;;;;2.28;1.05;;;17.10;56.10;;;;;;4910908;29;45226;-82
2023/04/06 18:33:39;;;;;;;2.85;1.10;;;17.10;56.60;;;;;;4910935;29;45084;-82
2023/04/06 18:36:08;;;;;;;2.22;1.20;;;17.10;57.20;;;;;;4910944;29;45367;-82
2023/04/06 18:38:38;;;;;;;2.28;1.23;;;17.20;57.40;;;;;;4910558;29;46956;-82
2023/04/06 18:41:05;;;;;;;3.10;1.30;;;17.20;56.60;;;;;;4910655;29;45898;-82
2023/04/06 18:43:31;;;;;;;2.00;1.10;;;17.20;56.60;;;;;;4911006;29;45113;-83
2023/04/06 18:45:59;;;;;;;1.25;1.00;;;17.20;56.60;;;;;;4911016;29;45587;-83
2023/04/06 18:48:26;;;;;;;2.53;1.25;;;17.20;56.60;;;;;;4910390;29;46531;-83
2023/04/06 18:50:53;;;;;;;2.85;1.38;;;17.20;56.50;;;;;;4910574;29;45185;-83
2023/04/06 18:53:20;;;;;;;1.40;1.15;;;17.20;56.70;;;;;;4910599;29;45202;-82
2023/04/06 18:55:50;;;;;;;1.90;1.05;;;17.10;56.60;;;;;;4910474;29;45580;-83
